Time;durP1;ratioP1;P1;durP2;ratioP2;P2;SDS_P1;SDS_P2;PMS_P1;PMS_P2;Temp;Humidity;BMP_temperature;BMP_pressure;BME280_temperature;BME280_humidity;BME280_pressure;Samples;Min_cycle;Max_cycle;Signal;HPM_P1;HPM_P2
2023/09/03 00:01:31;;;;;;;39.07;37.77;;;22.70;98.10;;;;;;5073928;28;20478;-50
2023/09/03 00:03:58;;;;;;;37.37;36.07;;;22.80;98.10;;;;;;5073874;28;20478;-49
2023/09/03 00:06:26;;;;;;;39.20;37.83;;;22.70;98.00;;;;;;5073741;28;20490;-48
2023/09/03 00:08:52;;;;;;;36.17;34.87;;;22.70;98.00;;;;;;5073673;28;20534;-53
2023/09/03 00:11:19;;;;;;;38.17;36.77;;;22.70;98.00;;;;;;5073825;28;20467;-50
2023/09/03 00:13:47;;;;;;;39.27;37.97;;;22.70;98.00;;;;;;5073879;28;20475;-48
2023/09/03 00:16:14;;;;;;;38.40;37.10;;;22.70;98.00;;;;;;5073328;28;20482;-47
2023/09/03 00:18:41;;;;;;;35.87;34.67;;;22.80;98.00;;;;;;5073653;28;20509;-49
2023/09/03 00:21:08;;;;;;;37.23;36.03;;;22.70;98.00;;;;;;5073447;28;20879;-47
2023/09/03 00:23:35;;;;;;;35.70;34.47;;;22.80;98.00;;;;;;5073605;28;20478;-51
2023/09/03 00:26:03;;;;;;;36.60;35.40;;;22.70;98.00;;;;;;5073099;28;20471;-48
2023/09/03 00:28:30;;;;;;;38.57;37.27;;;22.70;97.90;;;;;;5073615;28;20471;-47
2023/09/03 00:31:07;;;;;;;38.13;36.83;;;22.70;97.90;;;;;;5073460;28;20439;-48
2023/09/03 00:33:34;;;;;;;36.50;35.20;;;22.70;97.90;;;;;;5073456;28;20467;-50
2023/09/03 00:36:03;;;;;;;38.60;37.30;;;22.80;98.00;;;;;;5072950;28;20513;-50
2023/09/03 00:38:30;;;;;;;39.00;37.60;;;22.70;97.90;;;;;;5073623;28;20440;-49
2023/09/03 00:40:57;;;;;;;37.40;36.00;;;22.70;97.90;;;;;;5073272;28;20881;-48
2023/09/03 00:43:24;;;;;;;37.80;36.50;;;22.70;97.90;;;;;;5073327;28;20474;-50
2023/09/03 00:45:52;;;;;;;35.77;34.57;;;22.70;97.90;;;;;;5072980;28;20872;-47
2023/09/03 00:48:26;;;;;;;38.30;36.90;;;22.70;97.90;;;;;;5073210;28;20474;-49
2023/09/03 00:50:54;;;;;;;36.43;35.13;;;22.70;97.90;;;;;;5073364;28;20468;-48
2023/09/03 00:53:23;;;;;;;36.50;35.00;;;22.70;97.90;;;;;;5064631;28;20463;-49
2023/09/03 00:55:50;;;;;;;36.97;35.67;;;22.70;97.90;;;;;;5072740;28;20553;-50
2023/09/03 00:58:17;;;;;;;40.70;39.30;;;22.70;97.90;;;;;;5072661;28;20463;-49
2023/09/03 01:00:44;;;;;;;36.80;35.50;;;22.70;97.90;;;;;;5072804;28;20470;-49
2023/09/03 01:03:11;;;;;;;37.10;35.80;;;22.70;97.90;;;;;;5072655;28;20530;-51
2023/09/03 01:05:40;;;;;;;38.20;36.90;;;22.70;97.90;;;;;;5072824;28;20478;-49
2023/09/03 01:08:07;;;;;;;37.77;36.47;;;22.70;97.90;;;;;;5072586;28;20455;-50
2023/09/03 01:10:38;;;;;;;37.43;36.13;;;22.70;97.90;;;;;;5072662;28;20467;-50
2023/09/03 01:13:13;;;;;;;38.97;37.67;;;22.70;97.90;;;;;;5072655;28;20482;-48
2023/09/03 01:15:44;;;;;;;37.60;36.30;;;22.70;97.90;;;;;;5072411;28;20698;-53
2023/09/03 01:18:17;;;;;;;38.17;36.77;;;22.70;97.90;;;;;;5072285;28;20463;-53
2023/09/03 01:21:01;;;;;;;36.57;35.27;;;22.70;97.90;;;;;;5072392;28;20467;-54
2023/09/03 01:23:38;;;;;;;37.00;35.80;;;22.70;97.90;;;;;;5065365;28;20471;-49
2023/09/03 01:26:12;;;;;;;36.97;35.67;;;22.70;97.90;;;;;;5071748;28;20463;-48
2023/09/03 01:28:41;;;;;;;37.10;35.80;;;22.70;97.90;;;;;;5072244;28;20868;-48
2023/09/03 01:31:11;;;;;;;36.63;35.33;;;22.70;97.90;;;;;;5072112;28;20475;-48
2023/09/03 01:33:41;;;;;;;37.20;36.00;;;22.70;97.90;;;;;;5072221;28;20439;-48
2023/09/03 01:36:09;;;;;;;36.73;35.43;;;22.70;97.90;;;;;;5071751;28;20511;-49
2023/09/03 01:38:37;;;;;;;39.00;37.60;;;22.70;97.90;;;;;;5072159;28;20522;-50
2023/09/03 01:41:04;;;;;;;36.50;35.20;;;22.70;97.90;;;;;;5072111;28;20440;-48
2023/09/03 01:43:31;;;;;;;37.30;36.10;;;22.70;97.90;;;;;;5072023;28;20471;-48
2023/09/03 01:46:05;;;;;;;35.90;34.60;;;22.70;97.90;;;;;;5071553;28;20814;-49
2023/09/03 01:48:45;;;;;;;38.63;37.23;;;22.70;97.90;;;;;;5072064;28;20439;-47
2023/09/03 01:51:18;;;;;;;38.43;37.13;;;22.70;97.90;;;;;;5072087;28;20466;-48
2023/09/03 01:53:51;;;;;;;37.83;36.53;;;22.70;97.90;;;;;;5071744;28;20866;-48
2023/09/03 01:56:21;;;;;;;36.33;35.03;;;22.70;97.90;;;;;;5071212;28;20482;-48
2023/09/03 01:58:50;;;;;;;38.87;37.47;;;22.70;97.90;;;;;;5071675;28;20467;-50
2023/09/03 02:01:19;;;;;;;39.70;38.30;;;22.70;97.90;;;;;;5071923;28;20955;-49
2023/09/03 02:03:48;;;;;;;37.10;35.80;;;22.60;97.90;;;;;;5071707;28;20490;-48
2023/09/03 02:06:15;;;;;;;37.53;36.23;;;22.70;97.90;;;;;;5070405;28;20498;-48
2023/09/03 02:08:42;;;;;;;38.00;36.80;;;22.70;97.90;;;;;;5071502;28;20467;-49
2023/09/03 02:11:09;;;;;;;37.70;36.40;;;22.60;97.80;;;;;;5071738;28;20447;-48
2023/09/03 02:13:36;;;;;;;37.97;36.67;;;22.60;97.80;;;;;;5071500;28;20474;-49
2023/09/03 02:16:03;;;;;;;39.67;38.37;;;22.60;97.90;;;;;;5071065;28;20514;-48
2023/09/03 02:18:31;;;;;;;39.70;38.30;;;22.70;97.90;;;;;;5071577;28;20463;-48
2023/09/03 02:20:58;;;;;;;41.03;39.63;;;22.60;97.80;;;;;;5071257;28;20947;-49
2023/09/03 02:23:25;;;;;;;38.63;37.33;;;22.60;97.80;;;;;;5071302;28;20442;-49
2023/09/03 02:26:00;;;;;;;38.13;36.83;;;22.60;97.80;;;;;;5070963;28;20463;-50
2023/09/03 02:28:27;;;;;;;37.87;36.57;;;22.60;97.80;;;;;;5063702;28;20630;-51
2023/09/03 02:30:54;;;;;;;36.83;35.53;;;22.70;97.90;;;;;;5071366;28;20467;-50
2023/09/03 02:33:22;;;;;;;38.30;37.00;;;22.60;97.90;;;;;;5071478;28;20445;-52
2023/09/03 02:35:50;;;;;;;36.37;35.17;;;22.60;97.80;;;;;;5071034;28;20818;-47
2023/09/03 02:38:17;;;;;;;36.37;35.17;;;22.60;97.80;;;;;;5071127;28;20488;-48
2023/09/03 02:40:45;;;;;;;38.33;36.97;;;22.60;97.80;;;;;;5071302;28;20514;-48
2023/09/03 02:43:12;;;;;;;37.80;36.50;;;22.60;97.80;;;;;;5070984;28;20450;-49
2023/09/03 02:45:39;;;;;;;36.83;35.57;;;22.60;97.80;;;;;;5071110;28;20863;-50
2023/09/03 02:48:08;;;;;;;38.23;36.93;;;22.60;97.80;;;;;;5071064;28;20902;-50
2023/09/03 02:50:36;;;;;;;38.13;36.73;;;22.60;97.80;;;;;;5071216;28;20471;-49
2023/09/03 02:53:05;;;;;;;38.70;37.40;;;22.60;97.80;;;;;;5070966;28;20436;-49
2023/09/03 02:55:33;;;;;;;39.80;38.50;;;22.60;97.80;;;;;;5070748;28;20467;-48
2023/09/03 02:57:59;;;;;;;37.20;35.90;;;22.60;97.80;;;;;;5070944;28;20455;-53
2023/09/03 03:00:27;;;;;;;38.27;36.97;;;22.60;97.80;;;;;;5071041;28;20879;-48
2023/09/03 03:02:55;;;;;;;38.03;36.73;;;22.60;97.80;;;;;;5071063;28;20444;-50
2023/09/03 03:05:22;;;;;;;39.00;37.60;;;22.60;97.80;;;;;;5070713;28;20443;-51
2023/09/03 03:07:49;;;;;;;37.70;36.50;;;22.60;97.80;;;;;;5070997;28;20483;-53
2023/09/03 03:10:17;;;;;;;38.90;37.60;;;22.60;97.80;;;;;;5070943;28;20479;-50
2023/09/03 03:12:45;;;;;;;38.57;37.27;;;22.60;97.80;;;;;;5070879;28;20466;-51
2023/09/03 03:15:12;;;;;;;40.07;38.73;;;22.60;98.00;;;;;;5070628;28;20450;-49
2023/09/03 03:17:39;;;;;;;37.20;36.00;;;22.60;97.80;;;;;;5074231;28;20513;-48
2023/09/03 03:20:09;;;;;;;38.23;36.90;;;22.60;97.80;;;;;;5074589;28;20467;-48
2023/09/03 03:22:36;;;;;;;39.00;37.63;;;22.60;97.80;;;;;;5074704;28;20934;-49
2023/09/03 03:25:03;;;;;;;39.83;38.33;;;22.60;97.80;;;;;;5074353;28;20467;-49
2023/09/03 03:27:31;;;;;;;39.30;37.90;;;22.60;97.80;;;;;;5074320;28;20494;-48
2023/09/03 03:29:58;;;;;;;40.10;38.70;;;22.60;97.80;;;;;;5074691;28;20812;-49
2023/09/03 03:32:25;;;;;;;41.70;40.30;;;22.60;97.80;;;;;;5066281;28;20855;-49
2023/09/03 03:34:52;;;;;;;39.67;38.27;;;22.50;97.70;;;;;;5074364;28;20435;-48
2023/09/03 03:37:19;;;;;;;37.17;35.87;;;22.60;97.70;;;;;;5074341;28;20524;-49
2023/09/03 03:39:50;;;;;;;37.73;36.47;;;22.50;97.70;;;;;;5074372;28;20478;-49
2023/09/03 03:42:17;;;;;;;38.47;37.17;;;22.50;97.70;;;;;;5074317;28;20449;-50
2023/09/03 03:44:45;;;;;;;38.50;37.10;;;22.50;97.70;;;;;;5074144;28;20467;-48
2023/09/03 03:47:12;;;;;;;38.33;37.03;;;22.50;97.70;;;;;;5074086;28;20946;-49
2023/09/03 03:49:39;;;;;;;39.27;37.97;;;22.50;97.70;;;;;;5074256;28;20927;-50
2023/09/03 03:52:06;;;;;;;38.27;36.90;;;22.60;97.80;;;;;;5074090;28;20463;-49
2023/09/03 03:54:34;;;;;;;37.70;36.40;;;22.50;97.70;;;;;;5074067;28;20435;-49
2023/09/03 03:57:00;;;;;;;38.00;36.60;;;22.60;97.70;;;;;;5073835;28;20517;-51
2023/09/03 03:59:28;;;;;;;38.77;37.37;;;22.50;97.70;;;;;;5065881;28;20467;-48
2023/09/03 04:01:57;;;;;;;40.77;39.43;;;22.50;97.70;;;;;;5074043;28;20463;-50
2023/09/03 04:04:24;;;;;;;39.00;37.70;;;22.50;97.70;;;;;;5073838;28;20934;-50
2023/09/03 04:06:51;;;;;;;40.77;39.43;;;22.50;97.70;;;;;;5073640;28;20913;-50
2023/09/03 04:09:17;;;;;;;43.00;41.50;;;22.50;97.70;;;;;;5073839;28;20478;-49
2023/09/03 04:11:44;;;;;;;41.70;40.30;;;22.50;97.70;;;;;;5073714;28;20481;-51
2023/09/03 04:14:11;;;;;;;41.23;39.83;;;22.50;97.70;;;;;;5073749;28;20479;-50
2023/09/03 04:16:38;;;;;;;42.03;40.63;;;22.50;97.70;;;;;;5073390;28;20522;-49
2023/09/03 04:19:06;;;;;;;41.83;40.43;;;22.50;97.70;;;;;;5073534;28;20812;-52
2023/09/03 04:21:33;;;;;;;40.93;39.53;;;22.50;97.70;;;;;;5073616;28;20886;-48
2023/09/03 04:24:00;;;;;;;42.53;41.13;;;22.50;97.70;;;;;;5073620;28;20440;-50
2023/09/03 04:26:30;;;;;;;41.80;40.40;;;22.50;97.70;;;;;;5072955;28;20483;-52
2023/09/03 04:28:57;;;;;;;43.00;41.60;;;22.50;97.70;;;;;;5072354;28;20471;-53
2023/09/03 04:31:24;;;;;;;41.10;39.70;;;22.50;97.70;;;;;;5073324;28;20493;-56
2023/09/03 04:33:50;;;;;;;42.03;40.53;;;22.50;97.70;;;;;;5073374;28;20468;-51
2023/09/03 04:36:18;;;;;;;41.90;40.40;;;22.50;97.70;;;;;;5072879;28;20514;-51
2023/09/03 04:38:45;;;;;;;43.13;41.73;;;22.50;97.70;;;;;;5073177;28;20236;-52
2023/09/03 04:41:12;;;;;;;45.90;44.40;;;22.50;97.70;;;;;;5073116;28;20483;-51
2023/09/03 04:43:44;;;;;;;43.07;41.67;;;22.50;97.70;;;;;;5073353;28;20473;-54
2023/09/03 04:46:11;;;;;;;42.27;40.83;;;22.50;97.70;;;;;;5072907;28;21213;-50
2023/09/03 04:48:38;;;;;;;42.70;41.30;;;22.50;97.70;;;;;;5073289;28;20474;-53
2023/09/03 04:51:07;;;;;;;45.27;43.77;;;22.50;97.70;;;;;;5072912;28;20475;-53
2023/09/03 04:53:34;;;;;;;42.53;41.17;;;22.50;97.70;;;;;;5072956;28;20526;-52
2023/09/03 04:56:02;;;;;;;42.10;40.70;;;22.40;97.60;;;;;;5072536;28;20443;-55
2023/09/03 04:58:29;;;;;;;40.40;39.10;;;22.40;97.70;;;;;;5064771;28;20445;-51
2023/09/03 05:00:56;;;;;;;41.97;40.57;;;22.50;97.70;;;;;;5072902;28;20920;-52
2023/09/03 05:03:23;;;;;;;39.63;38.23;;;22.40;97.70;;;;;;5072661;28;21089;-54
2023/09/03 05:05:50;;;;;;;41.93;40.53;;;22.50;97.70;;;;;;5072512;28;20486;-53
2023/09/03 05:08:16;;;;;;;39.53;38.20;;;22.50;97.70;;;;;;5072453;28;20884;-55
2023/09/03 05:10:45;;;;;;;41.77;40.27;;;22.50;97.70;;;;;;5072694;28;20853;-56
2023/09/03 05:13:11;;;;;;;42.77;41.37;;;22.40;97.70;;;;;;5072763;28;20483;-52
2023/09/03 05:15:41;;;;;;;43.07;41.60;;;22.40;97.70;;;;;;5072405;28;20467;-51
2023/09/03 05:18:07;;;;;;;44.43;42.93;;;22.40;97.70;;;;;;5072220;28;20518;-51
2023/09/03 05:20:38;;;;;;;42.40;41.03;;;22.40;97.70;;;;;;5072345;28;20471;-49
2023/09/03 05:23:05;;;;;;;42.73;41.33;;;22.40;97.70;;;;;;5072559;28;20443;-50
2023/09/03 05:25:32;;;;;;;46.33;44.73;;;22.40;97.70;;;;;;5072139;28;20460;-51
2023/09/03 05:28:00;;;;;;;45.77;44.17;;;22.40;97.70;;;;;;5072000;28;20519;-49
2023/09/03 05:30:27;;;;;;;43.53;42.03;;;22.40;97.70;;;;;;5072105;28;20474;-56
2023/09/03 05:32:54;;;;;;;43.53;42.13;;;22.40;97.70;;;;;;5072309;28;20501;-53
2023/09/03 05:35:21;;;;;;;45.60;44.10;;;22.40;97.70;;;;;;5071963;28;20511;-53
2023/09/03 05:37:48;;;;;;;44.83;43.33;;;22.40;97.70;;;;;;5071940;28;20849;-52
2023/09/03 05:40:15;;;;;;;45.63;44.00;;;22.40;97.70;;;;;;5071670;28;20955;-52
2023/09/03 05:42:42;;;;;;;44.73;43.27;;;22.40;97.80;;;;;;5072077;28;20463;-54
2023/09/03 05:45:11;;;;;;;44.40;42.83;;;22.40;97.70;;;;;;5071646;28;20468;-52
2023/09/03 05:47:38;;;;;;;45.20;43.70;;;22.40;97.80;;;;;;5071959;28;20483;-54
2023/09/03 05:50:06;;;;;;;44.20;42.70;;;22.40;97.80;;;;;;5071895;28;20448;-51
2023/09/03 05:52:33;;;;;;;43.83;42.33;;;22.40;97.80;;;;;;5063882;28;20542;-55
2023/09/03 05:55:00;;;;;;;43.13;41.73;;;22.40;97.80;;;;;;5071817;28;20435;-54
2023/09/03 05:57:27;;;;;;;44.00;42.40;;;22.40;97.80;;;;;;5071950;28;20566;-55
2023/09/03 05:59:54;;;;;;;46.00;44.40;;;22.40;97.80;;;;;;5072197;28;20467;-55
2023/09/03 06:02:23;;;;;;;47.43;45.73;;;22.40;97.80;;;;;;5071705;28;20815;-55
2023/09/03 06:04:50;;;;;;;46.40;44.80;;;22.40;97.80;;;;;;5071428;28;20475;-51
2023/09/03 06:07:17;;;;;;;45.07;43.60;;;22.40;97.80;;;;;;5071559;28;20502;-50
2023/09/03 06:09:44;;;;;;;44.70;43.20;;;22.40;97.80;;;;;;5071546;28;20470;-51
2023/09/03 06:12:12;;;;;;;46.10;44.50;;;22.40;98.20;;;;;;5071552;28;20454;-51
2023/09/03 06:14:38;;;;;;;43.70;42.20;;;22.40;97.80;;;;;;5071338;28;20875;-52
2023/09/03 06:17:06;;;;;;;46.23;44.60;;;22.40;97.80;;;;;;5071270;28;20933;-51
2023/09/03 06:19:34;;;;;;;45.07;43.60;;;22.40;97.80;;;;;;5071450;28;20449;-51
2023/09/03 06:22:01;;;;;;;47.20;45.60;;;22.40;97.80;;;;;;5071549;28;20519;-51
2023/09/03 06:24:28;;;;;;;46.87;45.17;;;22.40;97.80;;;;;;5071289;28;20518;-52
2023/09/03 06:26:55;;;;;;;48.03;46.33;;;22.40;97.80;;;;;;5070953;28;20499;-51
2023/09/03 06:29:22;;;;;;;48.80;47.10;;;22.40;97.90;;;;;;5071259;28;20482;-51
2023/09/03 06:31:48;;;;;;;46.90;45.30;;;22.40;97.90;;;;;;5071244;28;20530;-51
2023/09/03 06:34:15;;;;;;;47.50;45.80;;;22.40;97.80;;;;;;5071225;28;20482;-51
2023/09/03 06:36:43;;;;;;;47.30;45.57;;;22.40;97.80;;;;;;5070857;28;20487;-51
2023/09/03 06:39:11;;;;;;;45.37;43.77;;;22.40;97.90;;;;;;5071123;28;20834;-52
2023/09/03 06:41:38;;;;;;;47.87;46.27;;;22.40;98.20;;;;;;5071417;28;20847;-51
2023/09/03 06:44:05;;;;;;;47.47;45.87;;;22.40;97.90;;;;;;5071311;28;20446;-52
2023/09/03 06:46:32;;;;;;;46.43;44.93;;;22.40;97.90;;;;;;5070971;28;20994;-53
2023/09/03 06:48:59;;;;;;;47.90;46.33;;;22.40;98.20;;;;;;5071256;28;20478;-52
2023/09/03 06:51:26;;;;;;;45.70;44.20;;;22.40;97.90;;;;;;5072120;28;20471;-55
2023/09/03 06:53:54;;;;;;;45.10;43.50;;;22.40;97.90;;;;;;5075241;28;20435;-53
2023/09/03 06:56:21;;;;;;;45.67;44.17;;;22.40;97.90;;;;;;5075025;28;20487;-55
2023/09/03 06:58:47;;;;;;;46.63;45.03;;;22.40;97.90;;;;;;5075384;28;20502;-53
2023/09/03 07:01:17;;;;;;;46.70;45.00;;;22.40;97.90;;;;;;5075708;28;20482;-49
2023/09/03 07:03:44;;;;;;;48.33;46.63;;;22.30;97.80;;;;;;5075487;28;20447;-50
2023/09/03 07:06:10;;;;;;;45.53;43.83;;;22.40;97.90;;;;;;5075003;28;20482;-47
2023/09/03 07:08:37;;;;;;;45.17;43.47;;;22.40;97.90;;;;;;5075192;28;20467;-50
2023/09/03 07:11:06;;;;;;;45.60;44.10;;;22.40;97.90;;;;;;5074932;28;20478;-50
2023/09/03 07:13:32;;;;;;;45.87;44.27;;;22.40;97.90;;;;;;5074814;28;20475;-49
2023/09/03 07:16:04;;;;;;;49.63;47.90;;;22.40;97.90;;;;;;5074670;28;20467;-50
2023/09/03 07:18:31;;;;;;;47.83;46.23;;;22.40;98.00;;;;;;5074640;28;20529;-53
2023/09/03 07:21:05;;;;;;;49.10;47.33;;;22.40;98.00;;;;;;5074624;28;20474;-49
2023/09/03 07:23:32;;;;;;;48.77;46.97;;;22.40;98.00;;;;;;5074526;28;20435;-48
2023/09/03 07:26:03;;;;;;;45.70;44.10;;;22.40;98.00;;;;;;5074412;28;20473;-50
2023/09/03 07:28:31;;;;;;;44.77;43.17;;;22.40;98.00;;;;;;5074627;28;20819;-50
2023/09/03 07:30:58;;;;;;;43.87;42.37;;;22.40;98.00;;;;;;5074454;28;20522;-53
2023/09/03 07:33:25;;;;;;;47.90;46.13;;;22.30;97.90;;;;;;5074310;28;20447;-52
2023/09/03 07:35:52;;;;;;;47.40;45.70;;;22.30;97.90;;;;;;5074079;28;20467;-51
2023/09/03 07:38:19;;;;;;;47.83;46.13;;;22.30;97.90;;;;;;5074253;28;20475;-52
2023/09/03 07:40:46;;;;;;;50.37;48.57;;;22.40;98.00;;;;;;5074332;28;20475;-50
2023/09/03 07:43:13;;;;;;;44.33;42.73;;;22.40;98.00;;;;;;5074175;28;20447;-52
2023/09/03 07:45:41;;;;;;;47.93;46.23;;;22.40;98.00;;;;;;5074119;28;20443;-51
2023/09/03 07:48:08;;;;;;;47.20;45.53;;;22.30;97.90;;;;;;5074191;28;20483;-52
2023/09/03 07:50:38;;;;;;;48.67;46.93;;;22.40;98.00;;;;;;5065817;28;20477;-50
2023/09/03 07:53:05;;;;;;;46.83;45.13;;;22.40;97.90;;;;;;5074111;28;20947;-51
2023/09/03 07:55:32;;;;;;;46.53;44.83;;;22.40;97.90;;;;;;5073804;28;20478;-51
2023/09/03 07:57:59;;;;;;;48.63;46.73;;;22.40;98.00;;;;;;5074052;28;20532;-50
2023/09/03 08:00:26;;;;;;;48.57;46.87;;;22.40;98.00;;;;;;5073915;28;20448;-52
2023/09/03 08:02:54;;;;;;;46.47;44.73;;;22.40;98.00;;;;;;5073793;28;20471;-50
2023/09/03 08:05:21;;;;;;;46.53;44.93;;;22.40;98.00;;;;;;5073577;28;20475;-52
2023/09/03 08:07:48;;;;;;;47.63;45.93;;;22.40;98.00;;;;;;5073893;28;20491;-50
2023/09/03 08:10:15;;;;;;;48.90;47.20;;;22.40;98.00;;;;;;5073622;28;20479;-52
2023/09/03 08:12:42;;;;;;;49.30;47.50;;;22.40;98.00;;;;;;5073723;28;20843;-50
2023/09/03 08:15:10;;;;;;;46.70;45.10;;;22.40;98.00;;;;;;5073526;28;20501;-52
2023/09/03 08:17:37;;;;;;;45.80;44.20;;;22.40;98.00;;;;;;5065345;28;20586;-50
2023/09/03 08:20:07;;;;;;;45.90;44.20;;;22.40;97.90;;;;;;5073589;28;20468;-51
2023/09/03 08:22:34;;;;;;;48.53;46.83;;;22.40;97.90;;;;;;5073434;28;20440;-50
2023/09/03 08:25:00;;;;;;;48.30;46.50;;;22.40;97.90;;;;;;5073367;28;20471;-51
2023/09/03 08:27:27;;;;;;;47.40;45.70;;;22.40;97.90;;;;;;5073307;28;20521;-52
2023/09/03 08:29:54;;;;;;;46.70;45.00;;;22.40;97.90;;;;;;5073445;28;20467;-52
2023/09/03 08:32:21;;;;;;;48.73;47.03;;;22.40;97.90;;;;;;5073367;28;20474;-52
2023/09/03 08:34:48;;;;;;;46.30;44.60;;;22.40;97.90;;;;;;5073135;28;20467;-50
2023/09/03 08:37:16;;;;;;;44.63;43.03;;;22.40;97.90;;;;;;5073041;28;20467;-50
2023/09/03 08:39:43;;;;;;;45.37;43.67;;;22.40;97.90;;;;;;5073163;28;20471;-50
2023/09/03 08:42:13;;;;;;;46.00;44.37;;;22.40;97.90;;;;;;5073297;28;20511;-51
2023/09/03 08:44:46;;;;;;;47.40;45.70;;;22.40;97.90;;;;;;5065217;28;20440;-52
2023/09/03 08:47:16;;;;;;;45.30;43.70;;;22.40;97.90;;;;;;5073075;28;20532;-55
2023/09/03 08:49:45;;;;;;;45.43;43.63;;;22.40;97.90;;;;;;5073378;28;20890;-54
2023/09/03 08:52:12;;;;;;;46.10;44.50;;;22.40;97.90;;;;;;5073310;28;20550;-51
2023/09/03 08:54:41;;;;;;;45.80;44.20;;;22.40;97.90;;;;;;5064760;28;20475;-50
2023/09/03 08:57:09;;;;;;;49.73;47.93;;;22.40;97.90;;;;;;5072927;28;20826;-50
2023/09/03 08:59:36;;;;;;;45.87;44.00;;;22.40;97.90;;;;;;5072721;28;20554;-51
2023/09/03 09:02:03;;;;;;;46.00;44.40;;;22.40;97.90;;;;;;5072756;28;20475;-52
2023/09/03 09:04:31;;;;;;;47.63;45.93;;;22.40;97.90;;;;;;5072681;28;20440;-50
2023/09/03 09:06:59;;;;;;;50.10;48.30;;;22.40;97.90;;;;;;5072420;28;21054;-50
2023/09/03 09:09:29;;;;;;;47.80;46.07;;;22.40;97.90;;;;;;5072619;28;20466;-51
2023/09/03 09:12:03;;;;;;;45.90;44.20;;;22.40;97.90;;;;;;5072673;28;20446;-51
2023/09/03 09:14:36;;;;;;;49.40;47.10;;;22.40;97.90;;;;;;5071930;28;20533;-52
2023/09/03 09:17:03;;;;;;;47.63;45.83;;;22.40;97.90;;;;;;5072457;28;20997;-53
2023/09/03 09:19:30;;;;;;;46.90;45.10;;;22.40;97.90;;;;;;5072239;28;20514;-50
2023/09/03 09:21:58;;;;;;;48.97;47.17;;;22.40;97.90;;;;;;5072516;28;20479;-51
2023/09/03 09:24:25;;;;;;;47.27;45.47;;;22.40;97.90;;;;;;5072257;28;20479;-49
2023/09/03 09:26:52;;;;;;;47.00;45.40;;;22.40;97.90;;;;;;5071925;28;20986;-51
2023/09/03 09:29:22;;;;;;;47.30;45.70;;;22.40;97.90;;;;;;5072071;28;20515;-51
2023/09/03 09:31:49;;;;;;;46.33;44.60;;;22.40;98.00;;;;;;5072243;28;20443;-50
2023/09/03 09:34:17;;;;;;;49.10;47.27;;;22.40;97.90;;;;;;5071984;28;20466;-52
2023/09/03 09:36:54;;;;;;;48.23;46.43;;;22.40;97.90;;;;;;5071830;28;20474;-50
2023/09/03 09:39:21;;;;;;;49.23;47.33;;;22.40;97.90;;;;;;5071952;28;20480;-51
2023/09/03 09:41:48;;;;;;;47.50;45.70;;;22.40;97.90;;;;;;5072183;28;20873;-51
2023/09/03 09:44:14;;;;;;;49.53;47.73;;;22.40;98.00;;;;;;5072070;28;20833;-51
2023/09/03 09:46:43;;;;;;;47.77;46.03;;;22.40;98.00;;;;;;5063583;28;21002;-51
2023/09/03 09:49:10;;;;;;;45.47;43.87;;;22.40;98.00;;;;;;5071932;28;20471;-50
2023/09/03 09:51:37;;;;;;;50.20;48.30;;;22.40;98.00;;;;;;5071803;28;20444;-50
2023/09/03 09:54:05;;;;;;;48.10;46.40;;;22.40;98.00;;;;;;5071773;28;20843;-51
2023/09/03 09:56:34;;;;;;;46.87;45.17;;;22.40;98.00;;;;;;5071451;28;20487;-50
2023/09/03 09:59:02;;;;;;;47.60;45.80;;;22.40;98.00;;;;;;5071644;28;20855;-50
2023/09/03 10:01:44;;;;;;;46.67;44.97;;;22.40;98.00;;;;;;5071656;28;20530;-51
2023/09/03 10:04:11;;;;;;;45.23;43.63;;;22.40;98.00;;;;;;5071676;28;20534;-50
2023/09/03 10:06:40;;;;;;;49.27;47.37;;;22.40;98.00;;;;;;5071304;28;20466;-51
2023/09/03 10:09:08;;;;;;;46.20;44.60;;;22.50;98.20;;;;;;5071507;28;20840;-51
2023/09/03 10:11:35;;;;;;;49.03;47.23;;;22.40;98.10;;;;;;5071461;28;20439;-51
2023/09/03 10:14:02;;;;;;;48.43;46.63;;;22.50;98.20;;;;;;5071442;28;20471;-50
2023/09/03 10:16:31;;;;;;;49.67;47.90;;;22.40;98.20;;;;;;5071112;28;20958;-52
2023/09/03 10:19:02;;;;;;;45.90;44.20;;;22.40;98.20;;;;;;5071354;28;20502;-51
2023/09/03 10:21:31;;;;;;;46.90;45.10;;;22.50;98.30;;;;;;5071350;28;20497;-51
2023/09/03 10:24:00;;;;;;;44.20;42.50;;;22.50;98.30;;;;;;5071273;28;21016;-52
2023/09/03 10:26:34;;;;;;;46.77;44.97;;;22.50;98.30;;;;;;5070171;28;20503;-50
2023/09/03 10:29:04;;;;;;;44.40;42.80;;;22.50;98.30;;;;;;5071596;28;20459;-50
2023/09/03 10:31:31;;;;;;;48.07;46.27;;;22.50;98.30;;;;;;5071234;28;20469;-52
2023/09/03 10:34:00;;;;;;;47.80;46.07;;;22.50;98.20;;;;;;5071328;28;20467;-50
2023/09/03 10:36:26;;;;;;;47.23;45.53;;;22.50;98.30;;;;;;5070836;28;20990;-51
2023/09/03 10:38:53;;;;;;;48.60;46.80;;;22.50;98.30;;;;;;5071115;28;20499;-53
2023/09/03 10:41:21;;;;;;;47.33;45.53;;;22.50;98.30;;;;;;5070982;28;20493;-51
2023/09/03 10:43:50;;;;;;;47.40;45.70;;;22.50;98.30;;;;;;5071194;28;20442;-52
2023/09/03 10:46:16;;;;;;;48.60;46.80;;;22.50;98.30;;;;;;5070825;28;20491;-51
2023/09/03 10:48:52;;;;;;;46.20;44.50;;;22.50;98.30;;;;;;5062891;28;20966;-50
2023/09/03 10:51:38;;;;;;;46.10;44.30;;;22.50;98.30;;;;;;5071133;28;20436;-51
2023/09/03 10:54:16;;;;;;;48.37;46.57;;;22.50;98.30;;;;;;5071068;28;20443;-50
2023/09/03 10:57:17;;;;;;;46.23;44.53;;;22.50;98.20;;;;;;5062422;28;20467;-50
2023/09/03 11:00:07;;;;;;;47.07;45.17;;;22.50;98.30;;;;;;5062953;28;20478;-58
2023/09/03 11:02:35;;;;;;;46.87;45.20;;;22.50;98.30;;;;;;5070984;28;20462;-55
2023/09/03 11:05:16;;;;;;;46.70;45.00;;;22.50;98.40;;;;;;5070834;28;20856;-55
2023/09/03 11:07:46;;;;;;;47.07;45.27;;;22.50;98.40;;;;;;5062706;28;20551;-50
2023/09/03 11:10:41;;;;;;;50.13;48.23;;;22.50;98.30;;;;;;5070953;28;20467;-50
2023/09/03 11:13:13;;;;;;;50.50;48.70;;;22.50;98.30;;;;;;5066107;28;20472;-50
2023/09/03 11:15:52;;;;;;;49.03;47.13;;;22.50;98.30;;;;;;5070506;28;20439;-51
2023/09/03 11:18:20;;;;;;;48.47;46.77;;;22.50;98.30;;;;;;5070697;28;20599;-50
2023/09/03 11:20:49;;;;;;;48.77;46.97;;;22.50;98.30;;;;;;5070795;28;20436;-51
2023/09/03 11:23:18;;;;;;;49.00;47.20;;;22.50;98.30;;;;;;5070846;28;20815;-51
2023/09/03 11:25:46;;;;;;;47.10;45.40;;;22.50;98.20;;;;;;5062526;28;20496;-50
2023/09/03 11:28:13;;;;;;;48.03;46.23;;;22.50;98.20;;;;;;5070739;28;20463;-49
2023/09/03 11:30:41;;;;;;;47.30;45.50;;;22.50;98.20;;;;;;5070607;28;20445;-50
2023/09/03 11:33:09;;;;;;;44.67;43.00;;;22.50;98.20;;;;;;5070730;28;20474;-50
2023/09/03 11:35:41;;;;;;;49.10;47.30;;;22.60;98.20;;;;;;5070529;28;20436;-50
2023/09/03 11:38:08;;;;;;;49.20;47.40;;;22.60;98.20;;;;;;5072532;28;20466;-50
2023/09/03 11:40:37;;;;;;;47.73;46.03;;;22.60;98.20;;;;;;5074361;28;20443;-51
2023/09/03 11:43:07;;;;;;;46.87;45.10;;;22.60;98.20;;;;;;5074233;28;20880;-50
2023/09/03 11:45:34;;;;;;;44.90;43.30;;;22.60;98.20;;;;;;5074045;28;20464;-52
2023/09/03 11:48:02;;;;;;;43.00;41.50;;;22.60;98.20;;;;;;5074168;28;20557;-49
2023/09/03 11:50:29;;;;;;;45.33;43.63;;;22.60;98.20;;;;;;5074076;28;20870;-50
2023/09/03 11:52:58;;;;;;;44.40;42.80;;;22.60;98.10;;;;;;5074278;28;20475;-53
2023/09/03 11:55:29;;;;;;;44.67;43.07;;;22.60;98.10;;;;;;5073842;28;20528;-54
2023/09/03 11:58:00;;;;;;;47.80;46.10;;;22.60;98.10;;;;;;5073958;28;21013;-53
2023/09/03 12:00:27;;;;;;;48.90;47.10;;;22.60;98.10;;;;;;5073813;28;20483;-50
2023/09/03 12:02:55;;;;;;;49.63;47.83;;;22.60;98.10;;;;;;5074001;28;20463;-53
2023/09/03 12:05:23;;;;;;;46.30;44.70;;;22.60;98.10;;;;;;5073623;28;20855;-49
2023/09/03 12:07:50;;;;;;;44.80;43.10;;;22.60;98.10;;;;;;5073714;28;20467;-50
2023/09/03 12:10:19;;;;;;;42.07;40.50;;;22.70;98.20;;;;;;5073786;28;20494;-49
2023/09/03 12:12:45;;;;;;;43.47;41.87;;;22.70;98.20;;;;;;5073619;28;20432;-50
2023/09/03 12:15:21;;;;;;;43.83;42.27;;;22.70;98.20;;;;;;5073636;28;20855;-50
2023/09/03 12:17:49;;;;;;;47.77;46.03;;;22.70;98.20;;;;;;5065772;28;20866;-51
2023/09/03 12:20:32;;;;;;;46.53;44.73;;;22.70;98.20;;;;;;5073480;28;20514;-52
2023/09/03 12:23:07;;;;;;;45.50;43.90;;;22.70;98.20;;;;;;5067155;28;20440;-53
2023/09/03 12:25:35;;;;;;;48.97;47.17;;;22.70;98.20;;;;;;5073376;28;20473;-51
2023/09/03 12:28:04;;;;;;;47.73;46.03;;;22.70;98.20;;;;;;5073307;28;20504;-51
2023/09/03 12:30:57;;;;;;;44.80;43.17;;;22.70;98.20;;;;;;5073343;28;20443;-50
2023/09/03 12:33:26;;;;;;;44.93;43.33;;;22.70;98.20;;;;;;5073283;28;20526;-50
2023/09/03 12:36:10;;;;;;;46.00;44.30;;;22.70;98.10;;;;;;5073217;28;20989;-53